sensor_id;sensor_type;location;lat;lon;timestamp;temperature;humidity
75799;DHT22;65035;44.726;37.764;2023-02-21T00:00:51;16.16;118.99
75799;DHT22;65035;44.726;37.764;2023-02-21T00:02:13;16.14;118.99
75799;DHT22;65035;44.726;37.764;2023-02-21T00:03:34;16.15;118.99
75799;DHT22;65035;44.726;37.764;2023-02-21T00:04:55;16.12;118.99
75799;DHT22;65035;44.726;37.764;2023-02-21T00:06:16;16.16;118.99
75799;DHT22;65035;44.726;37.764;2023-02-21T00:07:37;16.14;118.99
75799;DHT22;65035;44.726;37.764;2023-02-21T00:08:59;16.13;118.99
75799;DHT22;65035;44.726;37.764;2023-02-21T00:10:20;16.14;118.99
75799;DHT22;65035;44.726;37.764;2023-02-21T00:11:42;16.13;118.99
75799;DHT22;65035;44.726;37.764;2023-02-21T00:13:04;16.13;118.99
75799;DHT22;65035;44.726;37.764;2023-02-21T00:14:25;16.16;118.99
75799;DHT22;65035;44.726;37.764;2023-02-21T00:15:46;16.16;118.99
75799;DHT22;65035;44.726;37.764;2023-02-21T00:17:07;16.16;118.99
75799;DHT22;65035;44.726;37.764;2023-02-21T00:18:35;16.16;118.99
75799;DHT22;65035;44.726;37.764;2023-02-21T00:19:56;16.13;118.99
75799;DHT22;65035;44.726;37.764;2023-02-21T00:21:20;16.15;118.99
75799;DHT22;65035;44.726;37.764;2023-02-21T00:22:41;16.16;118.99
75799;DHT22;65035;44.726;37.764;2023-02-21T00:24:03;16.15;118.99
75799;DHT22;65035;44.726;37.764;2023-02-21T00:25:24;16.14;118.99
75799;DHT22;65035;44.726;37.764;2023-02-21T00:26:45;16.15;118.99
75799;DHT22;65035;44.726;37.764;2023-02-21T00:28:06;16.15;118.99
75799;DHT22;65035;44.726;37.764;2023-02-21T00:29:28;16.14;118.99
75799;DHT22;65035;44.726;37.764;2023-02-21T00:30:49;16.15;118.99
75799;DHT22;65035;44.726;37.764;2023-02-21T00:32:10;16.14;118.99
75799;DHT22;65035;44.726;37.764;2023-02-21T00:33:35;16.16;118.99
75799;DHT22;65035;44.726;37.764;2023-02-21T00:34:56;16.16;118.99
75799;DHT22;65035;44.726;37.764;2023-02-21T00:36:18;16.17;118.99
75799;DHT22;65035;44.726;37.764;2023-02-21T00:37:39;16.17;118.99
75799;DHT22;65035;44.726;37.764;2023-02-21T00:39:00;16.16;118.99
75799;DHT22;65035;44.726;37.764;2023-02-21T00:40:21;16.16;118.99
75799;DHT22;65035;44.726;37.764;2023-02-21T00:41:42;16.15;118.99
75799;DHT22;65035;44.726;37.764;2023-02-21T00:43:04;16.15;118.99
75799;DHT22;65035;44.726;37.764;2023-02-21T00:44:25;16.18;118.99
75799;DHT22;65035;44.726;37.764;2023-02-21T00:45:46;16.18;118.99
75799;DHT22;65035;44.726;37.764;2023-02-21T00:47:08;16.16;118.99
75799;DHT22;65035;44.726;37.764;2023-02-21T00:48:30;16.17;118.99
75799;DHT22;65035;44.726;37.764;2023-02-21T00:49:51;16.14;118.99
75799;DHT22;65035;44.726;37.764;2023-02-21T00:51:13;16.14;118.99
75799;DHT22;65035;44.726;37.764;2023-02-21T00:52:34;16.15;118.99
75799;DHT22;65035;44.726;37.764;2023-02-21T00:53:55;16.18;118.99
75799;DHT22;65035;44.726;37.764;2023-02-21T00:55:16;16.17;118.99
75799;DHT22;65035;44.726;37.764;2023-02-21T00:56:38;16.17;118.99
75799;DHT22;65035;44.726;37.764;2023-02-21T00:57:59;16.17;118.99
75799;DHT22;65035;44.726;37.764;2023-02-21T00:59:21;16.18;118.99
75799;DHT22;65035;44.726;37.764;2023-02-21T01:00:42;16.16;118.99
75799;DHT22;65035;44.726;37.764;2023-02-21T01:02:03;16.17;118.99
75799;DHT22;65035;44.726;37.764;2023-02-21T01:03:25;16.17;118.99
75799;DHT22;65035;44.726;37.764;2023-02-21T01:04:46;16.16;118.99
75799;DHT22;65035;44.726;37.764;2023-02-21T01:06:09;16.14;118.99
75799;DHT22;65035;44.726;37.764;2023-02-21T01:07:31;16.16;118.99
75799;DHT22;65035;44.726;37.764;2023-02-21T01:08:52;16.16;118.99
75799;DHT22;65035;44.726;37.764;2023-02-21T01:10:13;16.12;118.99
75799;DHT22;65035;44.726;37.764;2023-02-21T01:11:34;16.17;118.99
75799;DHT22;65035;44.726;37.764;2023-02-21T01:12:56;16.16;118.99
75799;DHT22;65035;44.726;37.764;2023-02-21T01:14:17;16.16;118.99
75799;DHT22;65035;44.726;37.764;2023-02-21T01:15:38;16.15;118.99
75799;DHT22;65035;44.726;37.764;2023-02-21T01:17:00;16.17;118.99
75799;DHT22;65035;44.726;37.764;2023-02-21T01:18:22;16.18;118.99
75799;DHT22;65035;44.726;37.764;2023-02-21T01:19:43;16.17;118.99
75799;DHT22;65035;44.726;37.764;2023-02-21T01:21:05;16.16;118.99
75799;DHT22;65035;44.726;37.764;2023-02-21T01:22:27;16.17;118.99
75799;DHT22;65035;44.726;37.764;2023-02-21T01:23:49;16.17;118.99
75799;DHT22;65035;44.726;37.764;2023-02-21T01:25:12;16.15;118.99
75799;DHT22;65035;44.726;37.764;2023-02-21T01:26:33;16.17;118.99
75799;DHT22;65035;44.726;37.764;2023-02-21T01:27:54;16.16;118.99
75799;DHT22;65035;44.726;37.764;2023-02-21T01:29:15;16.17;118.99
75799;DHT22;65035;44.726;37.764;2023-02-21T01:30:37;16.17;118.99
75799;DHT22;65035;44.726;37.764;2023-02-21T01:31:58;16.18;118.99
75799;DHT22;65035;44.726;37.764;2023-02-21T01:33:19;16.17;118.99
75799;DHT22;65035;44.726;37.764;2023-02-21T01:34:42;16.15;118.99
75799;DHT22;65035;44.726;37.764;2023-02-21T01:36:06;16.17;118.99
75799;DHT22;65035;44.726;37.764;2023-02-21T01:37:29;16.18;118.99
75799;DHT22;65035;44.726;37.764;2023-02-21T01:38:51;16.19;118.99
75799;DHT22;65035;44.726;37.764;2023-02-21T01:40:15;16.18;118.99
75799;DHT22;65035;44.726;37.764;2023-02-21T01:41:36;16.17;118.99
75799;DHT22;65035;44.726;37.764;2023-02-21T01:42:58;16.18;118.99
75799;DHT22;65035;44.726;37.764;2023-02-21T01:44:40;16.18;118.99
75799;DHT22;65035;44.726;37.764;2023-02-21T01:46:01;16.19;118.99
75799;DHT22;65035;44.726;37.764;2023-02-21T01:47:23;16.17;118.99
75799;DHT22;65035;44.726;37.764;2023-02-21T01:48:45;16.19;118.99
75799;DHT22;65035;44.726;37.764;2023-02-21T01:50:28;16.19;118.99
75799;DHT22;65035;44.726;37.764;2023-02-21T01:51:51;16.20;118.99
75799;DHT22;65035;44.726;37.764;2023-02-21T01:53:21;16.18;118.99
75799;DHT22;65035;44.726;37.764;2023-02-21T01:54:47;16.20;118.99
75799;DHT22;65035;44.726;37.764;2023-02-21T01:56:09;16.19;118.99
75799;DHT22;65035;44.726;37.764;2023-02-21T01:57:32;16.19;118.99
75799;DHT22;65035;44.726;37.764;2023-02-21T01:58:56;16.20;118.99
75799;DHT22;65035;44.726;37.764;2023-02-21T02:00:19;16.20;118.99
75799;DHT22;65035;44.726;37.764;2023-02-21T02:03:07;16.19;118.99
75799;DHT22;65035;44.726;37.764;2023-02-21T02:04:30;16.18;118.99
75799;DHT22;65035;44.726;37.764;2023-02-21T02:06:08;16.17;118.99
75799;DHT22;65035;44.726;37.764;2023-02-21T02:07:29;16.18;118.99
75799;DHT22;65035;44.726;37.764;2023-02-21T02:08:50;16.17;118.99
75799;DHT22;65035;44.726;37.764;2023-02-21T02:10:12;16.17;118.99
75799;DHT22;65035;44.726;37.764;2023-02-21T02:12:05;16.16;118.99
75799;DHT22;65035;44.726;37.764;2023-02-21T02:19:03;16.16;118.99
75799;DHT22;65035;44.726;37.764;2023-02-21T02:24:07;16.15;118.99
75799;DHT22;65035;44.726;37.764;2023-02-21T02:33:36;16.17;118.99
75799;DHT22;65035;44.726;37.764;2023-02-21T02:36:29;16.16;118.99
75799;DHT22;65035;44.726;37.764;2023-02-21T02:37:48;16.17;118.99
75799;DHT22;65035;44.726;37.764;2023-02-21T02:44:38;16.17;118.99
75799;DHT22;65035;44.726;37.764;2023-02-21T02:45:52;16.17;118.99
75799;DHT22;65035;44.726;37.764;2023-02-21T02:47:00;16.16;118.99
75799;DHT22;65035;44.726;37.764;2023-02-21T02:48:27;16.17;118.99
75799;DHT22;65035;44.726;37.764;2023-02-21T02:49:32;16.17;118.99
75799;DHT22;65035;44.726;37.764;2023-02-21T02:50:35;16.17;118.99
75799;DHT22;65035;44.726;37.764;2023-02-21T02:51:39;16.20;118.99
75799;DHT22;65035;44.726;37.764;2023-02-21T02:52:52;16.18;118.99
75799;DHT22;65035;44.726;37.764;2023-02-21T02:53:56;16.16;118.99
75799;DHT22;65035;44.726;37.764;2023-02-21T02:55:03;16.16;118.99
75799;DHT22;65035;44.726;37.764;2023-02-21T02:56:10;16.16;118.99
75799;DHT22;65035;44.726;37.764;2023-02-21T02:57:14;16.16;118.99
75799;DHT22;65035;44.726;37.764;2023-02-21T02:58:19;16.17;118.99
75799;DHT22;65035;44.726;37.764;2023-02-21T02:59:26;16.18;118.99
75799;DHT22;65035;44.726;37.764;2023-02-21T03:00:33;16.16;118.99
75799;DHT22;65035;44.726;37.764;2023-02-21T03:08:26;16.15;118.99
75799;DHT22;65035;44.726;37.764;2023-02-21T03:11:14;16.17;118.99
75799;DHT22;65035;44.726;37.764;2023-02-21T03:14:12;16.15;118.99
75799;DHT22;65035;44.726;37.764;2023-02-21T03:17:31;16.15;118.99
75799;DHT22;65035;44.726;37.764;2023-02-21T03:18:42;16.11;118.99
75799;DHT22;65035;44.726;37.764;2023-02-21T03:19:47;16.12;118.99
75799;DHT22;65035;44.726;37.764;2023-02-21T03:20:56;16.13;118.99
75799;DHT22;65035;44.726;37.764;2023-02-21T03:22:04;16.10;118.99
75799;DHT22;65035;44.726;37.764;2023-02-21T03:23:10;16.12;118.99
75799;DHT22;65035;44.726;37.764;2023-02-21T03:24:16;16.13;118.99
75799;DHT22;65035;44.726;37.764;2023-02-21T03:25:21;16.12;118.99
75799;DHT22;65035;44.726;37.764;2023-02-21T03:26:30;16.11;118.99
75799;DHT22;65035;44.726;37.764;2023-02-21T03:27:47;16.12;118.99
75799;DHT22;65035;44.726;37.764;2023-02-21T03:28:56;16.12;118.99
75799;DHT22;65035;44.726;37.764;2023-02-21T03:30:02;16.14;118.99
75799;DHT22;65035;44.726;37.764;2023-02-21T03:31:09;16.12;118.99
75799;DHT22;65035;44.726;37.764;2023-02-21T03:32:29;16.11;118.99
75799;DHT22;65035;44.726;37.764;2023-02-21T03:33:34;16.11;118.99
75799;DHT22;65035;44.726;37.764;2023-02-21T03:34:42;16.11;118.99
75799;DHT22;65035;44.726;37.764;2023-02-21T03:35:48;16.11;118.99
75799;DHT22;65035;44.726;37.764;2023-02-21T03:36:51;16.10;118.99
75799;DHT22;65035;44.726;37.764;2023-02-21T03:37:53;16.07;118.99
75799;DHT22;65035;44.726;37.764;2023-02-21T03:38:59;16.06;118.99
75799;DHT22;65035;44.726;37.764;2023-02-21T03:40:08;16.07;118.99
75799;DHT22;65035;44.726;37.764;2023-02-21T03:41:11;16.05;118.99
75799;DHT22;65035;44.726;37.764;2023-02-21T03:42:16;16.06;118.99
75799;DHT22;65035;44.726;37.764;2023-02-21T03:43:18;16.03;118.99
75799;DHT22;65035;44.726;37.764;2023-02-21T03:44:26;16.05;118.99
75799;DHT22;65035;44.726;37.764;2023-02-21T03:45:28;16.04;118.99
75799;DHT22;65035;44.726;37.764;2023-02-21T03:46:38;16.02;118.99
75799;DHT22;65035;44.726;37.764;2023-02-21T03:47:42;16.01;118.99
75799;DHT22;65035;44.726;37.764;2023-02-21T03:48:45;16.01;118.99
75799;DHT22;65035;44.726;37.764;2023-02-21T03:49:52;16.01;118.99
75799;DHT22;65035;44.726;37.764;2023-02-21T03:50:55;15.99;118.99
75799;DHT22;65035;44.726;37.764;2023-02-21T03:52:03;15.98;118.99
75799;DHT22;65035;44.726;37.764;2023-02-21T03:53:06;16.00;118.99
75799;DHT22;65035;44.726;37.764;2023-02-21T03:54:11;15.99;118.99
75799;DHT22;65035;44.726;37.764;2023-02-21T03:55:19;15.99;118.99
75799;DHT22;65035;44.726;37.764;2023-02-21T03:56:22;16.02;118.99
75799;DHT22;65035;44.726;37.764;2023-02-21T03:57:48;16.04;118.99
75799;DHT22;65035;44.726;37.764;2023-02-21T03:58:52;16.04;118.99
75799;DHT22;65035;44.726;37.764;2023-02-21T03:59:54;16.05;118.99
75799;DHT22;65035;44.726;37.764;2023-02-21T04:00:57;16.05;118.99
75799;DHT22;65035;44.726;37.764;2023-02-21T04:02:01;16.04;118.99
75799;DHT22;65035;44.726;37.764;2023-02-21T04:03:06;16.07;118.99
75799;DHT22;65035;44.726;37.764;2023-02-21T04:04:14;16.07;118.99
75799;DHT22;65035;44.726;37.764;2023-02-21T04:05:18;16.06;118.99
75799;DHT22;65035;44.726;37.764;2023-02-21T04:06:21;16.08;118.99
75799;DHT22;65035;44.726;37.764;2023-02-21T04:07:25;16.12;118.99
75799;DHT22;65035;44.726;37.764;2023-02-21T04:08:29;16.13;118.99
75799;DHT22;65035;44.726;37.764;2023-02-21T04:09:31;16.16;118.99
75799;DHT22;65035;44.726;37.764;2023-02-21T04:10:34;16.18;118.99
75799;DHT22;65035;44.726;37.764;2023-02-21T04:11:48;16.19;118.99
75799;DHT22;65035;44.726;37.764;2023-02-21T04:12:51;16.19;118.99
75799;DHT22;65035;44.726;37.764;2023-02-21T04:13:54;16.19;118.99
75799;DHT22;65035;44.726;37.764;2023-02-21T04:14:57;16.24;118.99
75799;DHT22;65035;44.726;37.764;2023-02-21T04:16:00;16.24;118.99
75799;DHT22;65035;44.726;37.764;2023-02-21T04:17:04;16.26;118.99
75799;DHT22;65035;44.726;37.764;2023-02-21T04:18:07;16.22;118.99
75799;DHT22;65035;44.726;37.764;2023-02-21T04:19:12;16.24;118.99
75799;DHT22;65035;44.726;37.764;2023-02-21T04:20:15;16.25;118.99
75799;DHT22;65035;44.726;37.764;2023-02-21T04:21:23;16.29;118.99
75799;DHT22;65035;44.726;37.764;2023-02-21T04:22:28;16.30;118.99
75799;DHT22;65035;44.726;37.764;2023-02-21T04:23:31;16.29;118.99
75799;DHT22;65035;44.726;37.764;2023-02-21T04:24:34;16.28;118.99
75799;DHT22;65035;44.726;37.764;2023-02-21T04:25:37;16.28;118.99
75799;DHT22;65035;44.726;37.764;2023-02-21T04:26:46;16.28;118.99
75799;DHT22;65035;44.726;37.764;2023-02-21T04:27:50;16.31;118.99
75799;DHT22;65035;44.726;37.764;2023-02-21T04:28:52;16.32;118.99
75799;DHT22;65035;44.726;37.764;2023-02-21T04:29:55;16.36;118.99
75799;DHT22;65035;44.726;37.764;2023-02-21T04:30:58;16.39;118.99
75799;DHT22;65035;44.726;37.764;2023-02-21T04:32:01;16.40;118.99
75799;DHT22;65035;44.726;37.764;2023-02-21T04:33:06;16.40;118.99
75799;DHT22;65035;44.726;37.764;2023-02-21T04:34:09;16.42;118.99
75799;DHT22;65035;44.726;37.764;2023-02-21T04:35:16;16.44;118.99
75799;DHT22;65035;44.726;37.764;2023-02-21T04:36:19;16.46;118.99
75799;DHT22;65035;44.726;37.764;2023-02-21T04:37:23;16.48;118.99
75799;DHT22;65035;44.726;37.764;2023-02-21T04:38:27;16.49;118.99
75799;DHT22;65035;44.726;37.764;2023-02-21T04:39:29;16.54;118.99
75799;DHT22;65035;44.726;37.764;2023-02-21T04:40:32;16.54;118.99
75799;DHT22;65035;44.726;37.764;2023-02-21T04:41:35;16.55;118.99
75799;DHT22;65035;44.726;37.764;2023-02-21T04:42:38;16.54;118.99
75799;DHT22;65035;44.726;37.764;2023-02-21T04:43:42;16.57;118.99
75799;DHT22;65035;44.726;37.764;2023-02-21T04:44:45;16.59;118.99
75799;DHT22;65035;44.726;37.764;2023-02-21T04:46:00;16.60;118.99
75799;DHT22;65035;44.726;37.764;2023-02-21T04:47:03;16.61;118.99
75799;DHT22;65035;44.726;37.764;2023-02-21T04:48:06;16.65;118.99
75799;DHT22;65035;44.726;37.764;2023-02-21T04:49:11;16.63;118.99
75799;DHT22;65035;44.726;37.764;2023-02-21T04:50:14;16.63;118.99
75799;DHT22;65035;44.726;37.764;2023-02-21T04:51:21;16.66;118.99
75799;DHT22;65035;44.726;37.764;2023-02-21T04:52:24;16.64;118.99
75799;DHT22;65035;44.726;37.764;2023-02-21T04:53:27;16.70;118.99
75799;DHT22;65035;44.726;37.764;2023-02-21T04:54:30;16.69;118.99
75799;DHT22;65035;44.726;37.764;2023-02-21T04:55:32;16.67;118.99
75799;DHT22;65035;44.726;37.764;2023-02-21T04:56:35;16.71;118.99
75799;DHT22;65035;44.726;37.764;2023-02-21T04:57:39;16.71;118.99
75799;DHT22;65035;44.726;37.764;2023-02-21T04:58:42;16.72;118.99
75799;DHT22;65035;44.726;37.764;2023-02-21T04:59:47;16.71;118.99
75799;DHT22;65035;44.726;37.764;2023-02-21T05:00:49;16.72;118.99
75799;DHT22;65035;44.726;37.764;2023-02-21T05:01:52;16.74;118.99
75799;DHT22;65035;44.726;37.764;2023-02-21T05:02:55;16.71;118.99
75799;DHT22;65035;44.726;37.764;2023-02-21T05:03:59;16.74;118.99
75799;DHT22;65035;44.726;37.764;2023-02-21T05:05:02;16.74;118.99
75799;DHT22;65035;44.726;37.764;2023-02-21T05:06:05;16.75;118.99
75799;DHT22;65035;44.726;37.764;2023-02-21T05:07:09;16.76;118.99
75799;DHT22;65035;44.726;37.764;2023-02-21T05:08:11;16.74;118.99
75799;DHT22;65035;44.726;37.764;2023-02-21T05:09:14;16.74;118.99
75799;DHT22;65035;44.726;37.764;2023-02-21T05:10:17;16.73;118.99
75799;DHT22;65035;44.726;37.764;2023-02-21T05:11:21;16.71;118.99
75799;DHT22;65035;44.726;37.764;2023-02-21T05:12:23;16.73;118.99
75799;DHT22;65035;44.726;37.764;2023-02-21T05:13:26;16.71;118.99
75799;DHT22;65035;44.726;37.764;2023-02-21T05:14:29;16.72;118.99
75799;DHT22;65035;44.726;37.764;2023-02-21T05:15:32;16.69;118.99
75799;DHT22;65035;44.726;37.764;2023-02-21T05:16:35;16.69;118.99
75799;DHT22;65035;44.726;37.764;2023-02-21T05:17:38;16.69;118.99
75799;DHT22;65035;44.726;37.764;2023-02-21T05:18:42;16.69;118.99
75799;DHT22;65035;44.726;37.764;2023-02-21T05:19:46;16.67;118.99
75799;DHT22;65035;44.726;37.764;2023-02-21T05:20:49;16.69;118.99
75799;DHT22;65035;44.726;37.764;2023-02-21T05:21:59;16.65;118.99
75799;DHT22;65035;44.726;37.764;2023-02-21T05:23:02;16.65;118.99
75799;DHT22;65035;44.726;37.764;2023-02-21T05:24:14;16.63;118.99
75799;DHT22;65035;44.726;37.764;2023-02-21T05:25:19;16.63;118.99
75799;DHT22;65035;44.726;37.764;2023-02-21T05:26:25;16.62;118.99
75799;DHT22;65035;44.726;37.764;2023-02-21T05:27:28;16.59;118.99
75799;DHT22;65035;44.726;37.764;2023-02-21T05:28:31;16.61;118.99
75799;DHT22;65035;44.726;37.764;2023-02-21T05:29:34;16.57;118.99
75799;DHT22;65035;44.726;37.764;2023-02-21T05:30:37;16.58;118.99
75799;DHT22;65035;44.726;37.764;2023-02-21T05:31:40;16.59;118.99
75799;DHT22;65035;44.726;37.764;2023-02-21T05:32:43;16.58;118.99
75799;DHT22;65035;44.726;37.764;2023-02-21T05:33:46;16.56;118.99
75799;DHT22;65035;44.726;37.764;2023-02-21T05:34:49;16.55;118.99
75799;DHT22;65035;44.726;37.764;2023-02-21T05:35:52;16.56;118.99
75799;DHT22;65035;44.726;37.764;2023-02-21T05:36:54;16.54;118.99
75799;DHT22;65035;44.726;37.764;2023-02-21T05:37:57;16.54;118.99
75799;DHT22;65035;44.726;37.764;2023-02-21T05:39:00;16.50;118.99
75799;DHT22;65035;44.726;37.764;2023-02-21T05:40:04;16.51;118.99
75799;DHT22;65035;44.726;37.764;2023-02-21T05:41:06;16.49;118.99
75799;DHT22;65035;44.726;37.764;2023-02-21T05:42:09;16.49;118.99
75799;DHT22;65035;44.726;37.764;2023-02-21T05:43:12;16.47;118.99
75799;DHT22;65035;44.726;37.764;2023-02-21T05:44:16;16.48;118.99
75799;DHT22;65035;44.726;37.764;2023-02-21T05:45:19;16.47;118.99
75799;DHT22;65035;44.726;37.764;2023-02-21T05:46:30;16.46;118.99
75799;DHT22;65035;44.726;37.764;2023-02-21T05:47:33;16.43;118.99
75799;DHT22;65035;44.726;37.764;2023-02-21T05:48:36;16.43;118.99
75799;DHT22;65035;44.726;37.764;2023-02-21T05:49:39;16.42;118.99
75799;DHT22;65035;44.726;37.764;2023-02-21T05:50:42;16.42;118.99
75799;DHT22;65035;44.726;37.764;2023-02-21T05:51:46;16.41;118.99
75799;DHT22;65035;44.726;37.764;2023-02-21T05:52:49;16.39;118.99
75799;DHT22;65035;44.726;37.764;2023-02-21T05:53:52;16.37;118.99
75799;DHT22;65035;44.726;37.764;2023-02-21T05:54:55;16.35;118.99
75799;DHT22;65035;44.726;37.764;2023-02-21T05:55:58;16.37;118.99
75799;DHT22;65035;44.726;37.764;2023-02-21T05:57:01;16.33;118.99
75799;DHT22;65035;44.726;37.764;2023-02-21T05:58:04;16.32;118.99
75799;DHT22;65035;44.726;37.764;2023-02-21T05:59:07;16.33;118.99
75799;DHT22;65035;44.726;37.764;2023-02-21T06:00:25;16.32;118.99
75799;DHT22;65035;44.726;37.764;2023-02-21T06:01:29;16.30;118.99
75799;DHT22;65035;44.726;37.764;2023-02-21T06:02:32;16.30;118.99
75799;DHT22;65035;44.726;37.764;2023-02-21T06:03:34;16.28;118.99
75799;DHT22;65035;44.726;37.764;2023-02-21T06:04:37;16.26;118.99
75799;DHT22;65035;44.726;37.764;2023-02-21T06:05:40;16.27;118.99
75799;DHT22;65035;44.726;37.764;2023-02-21T06:06:43;16.24;118.99
75799;DHT22;65035;44.726;37.764;2023-02-21T06:07:46;16.21;118.99
75799;DHT22;65035;44.726;37.764;2023-02-21T06:08:49;16.22;118.99
75799;DHT22;65035;44.726;37.764;2023-02-21T06:09:52;16.21;118.99
75799;DHT22;65035;44.726;37.764;2023-02-21T06:10:55;16.20;118.99
75799;DHT22;65035;44.726;37.764;2023-02-21T06:11:58;16.20;118.99
75799;DHT22;65035;44.726;37.764;2023-02-21T06:13:00;16.20;118.99
75799;DHT22;65035;44.726;37.764;2023-02-21T06:14:06;16.19;118.99
75799;DHT22;65035;44.726;37.764;2023-02-21T06:15:09;16.17;118.99
75799;DHT22;65035;44.726;37.764;2023-02-21T06:16:14;16.16;118.99
75799;DHT22;65035;44.726;37.764;2023-02-21T06:17:16;16.15;118.99
75799;DHT22;65035;44.726;37.764;2023-02-21T06:18:19;16.16;118.99
75799;DHT22;65035;44.726;37.764;2023-02-21T06:19:22;16.13;118.99
75799;DHT22;65035;44.726;37.764;2023-02-21T06:20:25;16.14;118.99
75799;DHT22;65035;44.726;37.764;2023-02-21T06:21:28;16.10;118.99
75799;DHT22;65035;44.726;37.764;2023-02-21T06:22:30;16.10;118.99
75799;DHT22;65035;44.726;37.764;2023-02-21T06:23:33;16.08;118.99
75799;DHT22;65035;44.726;37.764;2023-02-21T06:24:36;16.07;118.99
75799;DHT22;65035;44.726;37.764;2023-02-21T06:25:39;16.04;118.99
75799;DHT22;65035;44.726;37.764;2023-02-21T06:26:42;16.04;118.99
75799;DHT22;65035;44.726;37.764;2023-02-21T06:27:44;16.05;118.99
75799;DHT22;65035;44.726;37.764;2023-02-21T06:28:48;16.03;118.99
75799;DHT22;65035;44.726;37.764;2023-02-21T06:29:51;16.00;118.99
75799;DHT22;65035;44.726;37.764;2023-02-21T06:30:54;16.02;118.99
75799;DHT22;65035;44.726;37.764;2023-02-21T06:31:58;16.01;118.99
75799;DHT22;65035;44.726;37.764;2023-02-21T06:33:01;16.02;118.99
75799;DHT22;65035;44.726;37.764;2023-02-21T06:34:04;15.99;118.99
75799;DHT22;65035;44.726;37.764;2023-02-21T06:35:07;16.00;118.99
75799;DHT22;65035;44.726;37.764;2023-02-21T06:36:19;15.98;118.99
75799;DHT22;65035;44.726;37.764;2023-02-21T06:37:22;15.97;118.99
75799;DHT22;65035;44.726;37.764;2023-02-21T06:38:25;15.92;118.99
75799;DHT22;65035;44.726;37.764;2023-02-21T06:39:28;15.90;118.99
75799;DHT22;65035;44.726;37.764;2023-02-21T06:40:31;15.88;118.99
75799;DHT22;65035;44.726;37.764;2023-02-21T06:41:34;15.90;118.99
75799;DHT22;65035;44.726;37.764;2023-02-21T06:42:36;15.90;118.99
75799;DHT22;65035;44.726;37.764;2023-02-21T06:43:39;15.86;118.99
75799;DHT22;65035;44.726;37.764;2023-02-21T06:44:44;15.88;118.99
75799;DHT22;65035;44.726;37.764;2023-02-21T06:45:47;15.86;118.99
75799;DHT22;65035;44.726;37.764;2023-02-21T06:46:50;15.83;118.99
75799;DHT22;65035;44.726;37.764;2023-02-21T06:47:53;15.84;118.99
75799;DHT22;65035;44.726;37.764;2023-02-21T06:48:56;15.81;118.99
75799;DHT22;65035;44.726;37.764;2023-02-21T06:49:58;15.84;118.99
75799;DHT22;65035;44.726;37.764;2023-02-21T06:51:01;15.83;118.99
75799;DHT22;65035;44.726;37.764;2023-02-21T06:52:05;15.82;118.99
75799;DHT22;65035;44.726;37.764;2023-02-21T06:53:08;15.82;118.99
75799;DHT22;65035;44.726;37.764;2023-02-21T06:54:11;15.81;118.99
75799;DHT22;65035;44.726;37.764;2023-02-21T06:55:20;15.77;118.99
75799;DHT22;65035;44.726;37.764;2023-02-21T06:56:26;15.76;118.99
75799;DHT22;65035;44.726;37.764;2023-02-21T06:57:28;15.78;118.99
75799;DHT22;65035;44.726;37.764;2023-02-21T06:58:31;15.77;118.99
75799;DHT22;65035;44.726;37.764;2023-02-21T06:59:34;15.75;118.99
75799;DHT22;65035;44.726;37.764;2023-02-21T07:00:38;15.72;118.99
75799;DHT22;65035;44.726;37.764;2023-02-21T07:01:40;15.73;118.99
75799;DHT22;65035;44.726;37.764;2023-02-21T07:02:43;15.74;118.99
75799;DHT22;65035;44.726;37.764;2023-02-21T07:03:46;15.74;118.99
75799;DHT22;65035;44.726;37.764;2023-02-21T07:04:49;15.72;118.99
75799;DHT22;65035;44.726;37.764;2023-02-21T07:05:53;15.70;118.99
75799;DHT22;65035;44.726;37.764;2023-02-21T07:06:55;15.69;118.99
75799;DHT22;65035;44.726;37.764;2023-02-21T07:07:58;15.68;118.99
75799;DHT22;65035;44.726;37.764;2023-02-21T07:09:01;15.67;118.99
75799;DHT22;65035;44.726;37.764;2023-02-21T07:10:04;15.66;118.99
75799;DHT22;65035;44.726;37.764;2023-02-21T07:11:07;15.68;118.99
75799;DHT22;65035;44.726;37.764;2023-02-21T07:12:11;15.67;118.99
75799;DHT22;65035;44.726;37.764;2023-02-21T07:13:13;15.69;118.99
75799;DHT22;65035;44.726;37.764;2023-02-21T07:14:16;15.66;118.99
75799;DHT22;65035;44.726;37.764;2023-02-21T07:15:19;15.67;118.99
75799;DHT22;65035;44.726;37.764;2023-02-21T07:16:23;15.61;118.99
75799;DHT22;65035;44.726;37.764;2023-02-21T07:17:26;15.63;118.99
75799;DHT22;65035;44.726;37.764;2023-02-21T07:18:28;15.62;118.99
75799;DHT22;65035;44.726;37.764;2023-02-21T07:19:31;15.59;118.99
75799;DHT22;65035;44.726;37.764;2023-02-21T07:20:34;15.60;118.99
75799;DHT22;65035;44.726;37.764;2023-02-21T07:21:37;15.56;118.99
75799;DHT22;65035;44.726;37.764;2023-02-21T07:22:42;15.58;118.99
75799;DHT22;65035;44.726;37.764;2023-02-21T07:23:46;15.55;118.99
75799;DHT22;65035;44.726;37.764;2023-02-21T07:24:49;15.56;118.99
75799;DHT22;65035;44.726;37.764;2023-02-21T07:25:52;15.54;118.99
75799;DHT22;65035;44.726;37.764;2023-02-21T07:26:54;15.54;118.99
75799;DHT22;65035;44.726;37.764;2023-02-21T07:27:58;15.49;118.99
75799;DHT22;65035;44.726;37.764;2023-02-21T07:29:00;15.47;118.99
75799;DHT22;65035;44.726;37.764;2023-02-21T07:30:03;15.48;118.99
75799;DHT22;65035;44.726;37.764;2023-02-21T07:31:06;15.45;118.99
75799;DHT22;65035;44.726;37.764;2023-02-21T07:32:09;15.45;118.99
75799;DHT22;65035;44.726;37.764;2023-02-21T07:33:12;15.46;118.99
75799;DHT22;65035;44.726;37.764;2023-02-21T07:34:15;15.45;118.99
75799;DHT22;65035;44.726;37.764;2023-02-21T07:35:18;15.43;118.99
75799;DHT22;65035;44.726;37.764;2023-02-21T07:36:21;15.42;118.99
75799;DHT22;65035;44.726;37.764;2023-02-21T07:37:24;15.43;118.99
75799;DHT22;65035;44.726;37.764;2023-02-21T07:38:29;15.42;118.99
75799;DHT22;65035;44.726;37.764;2023-02-21T07:39:32;15.42;118.99
75799;DHT22;65035;44.726;37.764;2023-02-21T07:40:35;15.41;118.99
75799;DHT22;65035;44.726;37.764;2023-02-21T07:41:38;15.41;118.99
75799;DHT22;65035;44.726;37.764;2023-02-21T07:42:43;15.40;118.99
75799;DHT22;65035;44.726;37.764;2023-02-21T07:43:46;15.41;118.99